Time;durP1;ratioP1;P1;durP2;ratioP2;P2;SDS_P1;SDS_P2;PMS_P1;PMS_P2;Temp;Humidity;BMP_temperature;BMP_pressure;BME280_temperature;BME280_humidity;BME280_pressure;Samples;Min_cycle;Max_cycle;Signal;HPM_P1;HPM_P2
2023/12/03 00:02:13;;;;;;;;;;;;;;;;;;5002943;28;123078;-76
2023/12/03 00:04:39;;;;;;;;;;;;;;;;;;5002321;28;128136;-76
2023/12/03 00:07:06;;;;;;;;;;;;;;;;;;5002355;28;129481;-76
2023/12/03 00:09:32;;;;;;;;;;;;;;;;;;4998157;28;123121;-75
2023/12/03 00:11:59;;;;;;;;;;;;;;;;;;5005065;28;129001;-75
2023/12/03 00:14:25;;;;;;;;;;;;;;;;;;4999673;28;130011;-76
2023/12/03 00:16:51;;;;;;;;;;;;;;;;;;5013533;28;122804;-75
2023/12/03 00:19:18;;;;;;;;;;;;;;;;;;4999471;28;117539;-75
2023/12/03 00:21:44;;;;;;;;;;;;;;;;;;4993371;28;122085;-76
2023/12/03 00:24:11;;;;;;;;;;;;;;;;;;5016768;28;127858;-76
2023/12/03 00:26:37;;;;;;;;;;;;;;;;;;5015785;28;129136;-75
2023/12/03 00:29:03;;;;;;;;;;;;;;;;;;5021162;28;123160;-75
2023/12/03 00:31:29;;;;;;;;;;;;;;;;;;5011851;28;129636;-76
2023/12/03 00:33:56;;;;;;;;;;;;;;;;;;5013220;28;130375;-75
2023/12/03 00:36:22;;;;;;;;;;;;;;;;;;5008293;28;121806;-74
2023/12/03 00:38:48;;;;;;;;;;;;;;;;;;5021389;28;130151;-75
2023/12/03 00:41:15;;;;;;;;;;;;;;;;;;5014709;28;121747;-76
2023/12/03 00:43:41;;;;;;;;;;;;;;;;;;5006489;28;129879;-76
2023/12/03 00:46:07;;;;;;;;;;;;;;;;;;5014136;28;127779;-75
2023/12/03 00:48:34;;;;;;;;;;;;;;;;;;5016505;28;124849;-76
2023/12/03 00:51:00;;;;;;;;;;;;;;;;;;5015090;28;129918;-76
2023/12/03 00:53:27;;;;;;;;;;;;;;;;;;4997128;28;129501;-75
2023/12/03 00:55:54;;;;;;;;;;;;;;;;;;5008945;28;122785;-76
2023/12/03 00:58:21;;;;;;;;;;;;;;;;;;5009904;28;104893;-75
2023/12/03 01:00:47;;;;;;;;;;;;;;;;;;5003801;28;100037;-76
2023/12/03 01:03:14;;;;;;;;;;;;;;;;;;4994731;28;128779;-75
2023/12/03 01:05:40;;;;;;;;;;;;;;;;;;4998909;28;130281;-76
2023/12/03 01:08:06;;;;;;;;;;;;;;;;;;4988221;28;123464;-76
2023/12/03 01:10:33;;;;;;;;;;;;;;;;;;5005019;28;128920;-76
2023/12/03 01:12:59;;;;;;;;;;;;;;;;;;4992722;28;129411;-76
2023/12/03 01:15:25;;;;;;;;;;;;;;;;;;5001487;27;121654;-76
2023/12/03 01:17:52;;;;;;;;;;;;;;;;;;5004756;28;128992;-74
2023/12/03 01:20:18;;;;;;;;;;;;;;;;;;4999838;28;129516;-75
2023/12/03 01:22:45;;;;;;;;;;;;;;;;;;4997389;28;129422;-75
2023/12/03 01:25:11;;;;;;;;;;;;;;;;;;5001037;28;128566;-76
2023/12/03 01:27:37;;;;;;;;;;;;;;;;;;5000639;28;119788;-76
2023/12/03 01:30:04;;;;;;;;;;;;;;;;;;5004872;28;128709;-76
2023/12/03 01:32:30;;;;;;;;;;;;;;;;;;5017652;28;132011;-76
2023/12/03 01:34:57;;;;;;;;;;;;;;;;;;5019634;28;125462;-75
2023/12/03 01:37:23;;;;;;;;;;;;;;;;;;5007805;28;129016;-75
2023/12/03 01:39:49;;;;;;;;;;;;;;;;;;5008690;28;130263;-75
2023/12/03 01:42:16;;;;;;;;;;;;;;;;;;5018837;28;110260;-76
2023/12/03 01:44:42;;;;;;;;;;;;;;;;;;5014757;28;129145;-76
2023/12/03 01:47:08;;;;;;;;;;;;;;;;;;5003994;28;123186;-75
2023/12/03 01:49:35;;;;;;;;;;;;;;;;;;5007945;28;129855;-76
2023/12/03 01:52:01;;;;;;;;;;;;;;;;;;5007356;28;129469;-75
2023/12/03 01:54:27;;;;;;;;;;;;;;;;;;5012383;28;123003;-76
2023/12/03 01:56:54;;;;;;;;;;;;;;;;;;5012504;28;129104;-75
2023/12/03 01:59:20;;;;;;;;;;;;;;;;;;5006065;28;129757;-76
2023/12/03 02:01:46;;;;;;;;;;;;;;;;;;5015306;28;124086;-75
2023/12/03 02:04:13;;;;;;;;;;;;;;;;;;5007417;28;129676;-76
2023/12/03 02:06:39;;;;;;;;;;;;;;;;;;5015207;28;123720;-75
2023/12/03 02:09:07;;;;;;;;;;;;;;;;;;5023026;28;129339;-74
2023/12/03 02:11:33;;;;;;;;;;;;;;;;;;5013400;27;129123;-75
2023/12/03 02:13:59;;;;;;;;;;;;;;;;;;5019435;28;124348;-75
2023/12/03 02:16:26;;;;;;;;;;;;;;;;;;5008762;28;129075;-76
2023/12/03 02:18:52;;;;;;;;;;;;;;;;;;5004837;28;129411;-75
2023/12/03 02:21:19;;;;;;;;;;;;;;;;;;5013891;27;98434;-78
2023/12/03 02:23:47;;;;;;;;;;;;;;;;;;5007524;28;127747;-77
2023/12/03 02:26:13;;;;;;;;;;;;;;;;;;5013954;27;127989;-75
2023/12/03 02:28:40;;;;;;;;;;;;;;;;;;5007618;28;125751;-75
2023/12/03 02:31:06;;;;;;;;;;;;;;;;;;5021471;28;127717;-76
2023/12/03 02:33:32;;;;;;;;;;;;;;;;;;5006429;28;123646;-75
2023/12/03 02:35:59;;;;;;;;;;;;;;;;;;5007057;28;129052;-76
2023/12/03 02:38:25;;;;;;;;;;;;;;;;;;5021882;28;129742;-75
2023/12/03 02:40:51;;;;;;;;;;;;;;;;;;5020412;28;120830;-75
2023/12/03 02:43:18;;;;;;;;;;;;;;;;;;5009047;28;128962;-76
2023/12/03 02:45:44;;;;;;;;;;;;;;;;;;5006304;28;129500;-75
2023/12/03 02:48:10;;;;;;;;;;;;;;;;;;5014311;28;124910;-75
2023/12/03 02:50:37;;;;;;;;;;;;;;;;;;5002387;28;129424;-75
2023/12/03 02:53:03;;;;;;;;;;;;;;;;;;5016303;28;123111;-76
2023/12/03 02:55:30;;;;;;;;;;;;;;;;;;5007362;28;129108;-75
2023/12/03 02:57:56;;;;;;;;;;;;;;;;;;5006440;28;129755;-75
2023/12/03 03:00:22;;;;;;;;;;;;;;;;;;5007837;28;122937;-75
2023/12/03 03:02:49;;;;;;;;;;;;;;;;;;5006265;28;129779;-74
2023/12/03 03:05:15;;;;;;;;;;;;;;;;;;5004214;28;129375;-76
2023/12/03 03:07:41;;;;;;;;;;;;;;;;;;5012611;28;123041;-76
2023/12/03 03:10:08;;;;;;;;;;;;;;;;;;5007002;28;124277;-74
2023/12/03 03:12:34;;;;;;;;;;;;;;;;;;5014039;28;125611;-74
2023/12/03 03:15:00;;;;;;;;;;;;;;;;;;5005710;28;129082;-76
2023/12/03 03:17:27;;;;;;;;;;;;;;;;;;5013309;28;106367;-75
2023/12/03 03:19:53;;;;;;;;;;;;;;;;;;5004593;28;121357;-75
2023/12/03 03:22:19;;;;;;;;;;;;;;;;;;5003128;28;129958;-75
2023/12/03 03:24:46;;;;;;;;;;;;;;;;;;5008711;28;129433;-75
2023/12/03 03:27:12;;;;;;;;;;;;;;;;;;4998877;28;123081;-75
2023/12/03 03:29:39;;;;;;;;;;;;;;;;;;5024356;28;129722;-75
2023/12/03 03:32:05;;;;;;;;;;;;;;;;;;5006488;28;123066;-75
2023/12/03 03:34:32;;;;;;;;;;;;;;;;;;5012845;28;128971;-76
2023/12/03 03:36:58;;;;;;;;;;;;;;;;;;5005148;28;129536;-75
2023/12/03 03:39:24;;;;;;;;;;;;;;;;;;5005016;28;123297;-75
2023/12/03 03:41:51;;;;;;;;;;;;;;;;;;5021682;27;126246;-75
2023/12/03 03:44:17;;;;;;;;;;;;;;;;;;5015928;28;129475;-75
2023/12/03 03:46:43;;;;;;;;;;;;;;;;;;5016620;28;122853;-75
2023/12/03 03:49:10;;;;;;;;;;;;;;;;;;5008570;28;127696;-76
2023/12/03 03:51:36;;;;;;;;;;;;;;;;;;5023088;28;130295;-75
2023/12/03 03:54:02;;;;;;;;;;;;;;;;;;5012334;28;129730;-74
2023/12/03 03:56:29;;;;;;;;;;;;;;;;;;5003609;28;131351;-75
2023/12/03 03:58:55;;;;;;;;;;;;;;;;;;5011303;28;123580;-75
2023/12/03 04:01:21;;;;;;;;;;;;;;;;;;5007658;28;128922;-75
2023/12/03 04:03:48;;;;;;;;;;;;;;;;;;5015691;28;129555;-75
2023/12/03 04:06:14;;;;;;;;;;;;;;;;;;5007668;28;121081;-75
2023/12/03 04:08:41;;;;;;;;;;;;;;;;;;5023151;28;112253;-75
2023/12/03 04:11:07;;;;;;;;;;;;;;;;;;5002728;28;129325;-74
2023/12/03 04:13:33;;;;;;;;;;;;;;;;;;5017004;28;120279;-75
2023/12/03 04:16:00;;;;;;;;;;;;;;;;;;5013002;27;129619;-75
2023/12/03 04:18:27;;;;;;;;;;;;;;;;;;5006917;28;122277;-74
2023/12/03 04:20:53;;;;;;;;;;;;;;;;;;5021381;27;128566;-74
2023/12/03 04:23:20;;;;;;;;;;;;;;;;;;5017933;27;129348;-75
2023/12/03 04:25:46;;;;;;;;;;;;;;;;;;5011192;28;125357;-75
2023/12/03 04:28:12;;;;;;;;;;;;;;;;;;5000894;28;127457;-75
2023/12/03 04:30:39;;;;;;;;;;;;;;;;;;5005351;28;129435;-75
2023/12/03 04:33:05;;;;;;;;;;;;;;;;;;5004350;28;126152;-75
2023/12/03 04:35:31;;;;;;;;;;;;;;;;;;5013900;28;130187;-75
2023/12/03 04:37:58;;;;;;;;;;;;;;;;;;5014688;28;123497;-75
2023/12/03 04:40:24;;;;;;;;;;;;;;;;;;5002915;28;130097;-75
2023/12/03 04:42:50;;;;;;;;;;;;;;;;;;5006795;28;128110;-76
2023/12/03 04:45:17;;;;;;;;;;;;;;;;;;5019264;28;123768;-74
2023/12/03 04:47:43;;;;;;;;;;;;;;;;;;5024006;28;128879;-75
2023/12/03 04:50:09;;;;;;;;;;;;;;;;;;5009233;28;129104;-76
2023/12/03 04:52:36;;;;;;;;;;;;;;;;;;5006099;28;122460;-75
2023/12/03 04:55:02;;;;;;;;;;;;;;;;;;5015350;28;128963;-75
2023/12/03 04:57:29;;;;;;;;;;;;;;;;;;5027038;28;100105;-75
2023/12/03 04:59:55;;;;;;;;;;;;;;;;;;5013398;28;127924;-75
2023/12/03 05:02:21;;;;;;;;;;;;;;;;;;5010603;27;128353;-75
2023/12/03 05:04:48;;;;;;;;;;;;;;;;;;5011621;28;123090;-75
2023/12/03 05:07:15;;;;;;;;;;;;;;;;;;5008532;28;129096;-74
2023/12/03 05:09:41;;;;;;;;;;;;;;;;;;5025718;28;130185;-75
2023/12/03 05:12:08;;;;;;;;;;;;;;;;;;5020356;27;123113;-76
2023/12/03 05:14:34;;;;;;;;;;;;;;;;;;5010738;27;130249;-75
2023/12/03 05:17:00;;;;;;;;;;;;;;;;;;5022751;28;130292;-75
2023/12/03 05:19:27;;;;;;;;;;;;;;;;;;5009003;28;127596;-76
2023/12/03 05:21:53;;;;;;;;;;;;;;;;;;5019477;28;129465;-75
2023/12/03 05:24:19;;;;;;;;;;;;;;;;;;5014419;28;117071;-74
2023/12/03 05:26:46;;;;;;;;;;;;;;;;;;5011126;28;114474;-75
2023/12/03 05:29:12;;;;;;;;;;;;;;;;;;5016973;28;129566;-75
2023/12/03 05:31:38;;;;;;;;;;;;;;;;;;5011183;28;122385;-75
2023/12/03 05:34:05;;;;;;;;;;;;;;;;;;5015972;28;118415;-76
2023/12/03 05:36:31;;;;;;;;;;;;;;;;;;5007245;28;128127;-75
2023/12/03 05:38:58;;;;;;;;;;;;;;;;;;5020477;28;125119;-76
2023/12/03 05:41:24;;;;;;;;;;;;;;;;;;5015784;28;129720;-75
2023/12/03 05:43:51;;;;;;;;;;;;;;;;;;5007291;28;123061;-75
2023/12/03 05:46:18;;;;;;;;;;;;;;;;;;5005272;28;128072;-74
2023/12/03 05:48:44;;;;;;;;;;;;;;;;;;5000698;28;129776;-76
2023/12/03 05:51:11;;;;;;;;;;;;;;;;;;5013628;28;123046;-75
2023/12/03 05:53:37;;;;;;;;;;;;;;;;;;5014419;28;128569;-75
2023/12/03 05:56:04;;;;;;;;;;;;;;;;;;5006869;28;129389;-75
2023/12/03 05:58:30;;;;;;;;;;;;;;;;;;5009074;27;123375;-74
2023/12/03 06:00:56;;;;;;;;;;;;;;;;;;5016479;27;130089;-75
2023/12/03 06:03:23;;;;;;;;;;;;;;;;;;5003639;28;126213;-74
2023/12/03 06:05:49;;;;;;;;;;;;;;;;;;5019908;28;129113;-76
2023/12/03 06:08:16;;;;;;;;;;;;;;;;;;5018283;28;130226;-75
2023/12/03 06:10:42;;;;;;;;;;;;;;;;;;5016432;28;123688;-75
2023/12/03 06:13:10;;;;;;;;;;;;;;;;;;5006173;28;128972;-75
2023/12/03 06:15:37;;;;;;;;;;;;;;;;;;5015994;28;130206;-75
2023/12/03 06:18:03;;;;;;;;;;;;;;;;;;5007418;28;123063;-75
2023/12/03 06:20:30;;;;;;;;;;;;;;;;;;5021782;28;129401;-74
2023/12/03 06:22:56;;;;;;;;;;;;;;;;;;5030750;28;129441;-75
2023/12/03 06:25:22;;;;;;;;;;;;;;;;;;5010164;28;129235;-75
2023/12/03 06:27:49;;;;;;;;;;;;;;;;;;5019844;28;126121;-75
2023/12/03 06:30:17;;;;;;;;;;;;;;;;;;5013146;27;121515;-76
2023/12/03 06:32:43;;;;;;;;;;;;;;;;;;5005669;28;128834;-76
2023/12/03 06:35:14;;;;;;;;;;;;;;;;;;5002438;28;129690;-75
2023/12/03 06:37:40;;;;;;;;;;;;;;;;;;5007708;28;123262;-76
2023/12/03 06:40:07;;;;;;;;;;;;;;;;;;5009219;28;129053;-76
2023/12/03 06:42:33;;;;;;;;;;;;;;;;;;5007508;28;129226;-76
2023/12/03 06:44:59;;;;;;;;;;;;;;;;;;5020810;27;121974;-75
2023/12/03 06:47:26;;;;;;;;;;;;;;;;;;5007572;28;113355;-75
2023/12/03 06:49:52;;;;;;;;;;;;;;;;;;5005451;28;120028;-75
2023/12/03 06:52:18;;;;;;;;;;;;;;;;;;5017278;28;119458;-75
2023/12/03 06:54:45;;;;;;;;;;;;;;;;;;5006504;27;100157;-75
2023/12/03 06:57:11;;;;;;;;;;;;;;;;;;4996334;28;122984;-75
2023/12/03 06:59:37;;;;;;;;;;;;;;;;;;5001464;28;128999;-75
2023/12/03 07:02:04;;;;;;;;;;;;;;;;;;5002109;28;129531;-74
2023/12/03 07:04:30;;;;;;;;;;;;;;;;;;5003673;28;124521;-77
2023/12/03 07:06:57;;;;;;;;;;;;;;;;;;5009079;28;122056;-75
2023/12/03 07:09:27;;;;;;;;;;;;;;;;;;5006430;28;124489;-75
2023/12/03 07:12:03;;;;;;;;;;;;;;;;;;5014326;28;129300;-76
2023/12/03 07:14:29;;;;;;;;;;;;;;;;;;5014379;28;129588;-75
2023/12/03 07:16:56;;;;;;;;;;;;;;;;;;5006498;28;125336;-76
2023/12/03 07:19:22;;;;;;;;;;;;;;;;;;5022546;28;127587;-75
2023/12/03 07:21:49;;;;;;;;;;;;;;;;;;5008641;28;130185;-76
2023/12/03 07:24:15;;;;;;;;;;;;;;;;;;5012926;28;121766;-76
2023/12/03 07:26:41;;;;;;;;;;;;;;;;;;5018073;28;128949;-75
2023/12/03 07:29:08;;;;;;;;;;;;;;;;;;5014496;28;123210;-75
2023/12/03 07:31:34;;;;;;;;;;;;;;;;;;5007182;28;129074;-75
2023/12/03 07:34:00;;;;;;;;;;;;;;;;;;5007539;28;127259;-75
2023/12/03 07:36:27;;;;;;;;;;;;;;;;;;5002785;28;123352;-76
2023/12/03 07:38:53;;;;;;;;;;;;;;;;;;5004037;28;129778;-76
2023/12/03 07:41:19;;;;;;;;;;;;;;;;;;5012947;28;129372;-76
2023/12/03 07:43:46;;;;;;;;;;;;;;;;;;5002373;28;121582;-76
2023/12/03 07:46:12;;;;;;;;;;;;;;;;;;4988786;28;129174;-76
2023/12/03 07:48:38;;;;;;;;;;;;;;;;;;4994380;28;129478;-76
2023/12/03 07:51:05;;;;;;;;;;;;;;;;;;4992973;28;127383;-75
2023/12/03 07:53:31;;;;;;;;;;;;;;;;;;4986608;28;129435;-76
2023/12/03 07:55:57;;;;;;;;;;;;;;;;;;4993067;28;121891;-76
2023/12/03 07:58:23;;;;;;;;;;;;;;;;;;4995243;28;129426;-75
2023/12/03 08:00:50;;;;;;;;;;;;;;;;;;4995954;28;128243;-74
2023/12/03 08:03:16;;;;;;;;;;;;;;;;;;4987293;28;120544;-74
2023/12/03 08:05:42;;;;;;;;;;;;;;;;;;4992098;28;128604;-75
2023/12/03 08:08:09;;;;;;;;;;;;;;;;;;4988025;28;119914;-75
2023/12/03 08:10:35;;;;;;;;;;;;;;;;;;4999009;28;120028;-75
2023/12/03 08:13:02;;;;;;;;;;;;;;;;;;4990882;28;129411;-75
2023/12/03 08:15:28;;;;;;;;;;;;;;;;;;4992560;28;120878;-75
2023/12/03 08:17:54;;;;;;;;;;;;;;;;;;4990373;28;112836;-75
2023/12/03 08:20:21;;;;;;;;;;;;;;;;;;4989544;28;129811;-75
2023/12/03 08:22:47;;;;;;;;;;;;;;;;;;4992989;28;123031;-78
2023/12/03 08:25:14;;;;;;;;;;;;;;;;;;4998230;28;129712;-76
2023/12/03 08:27:41;;;;;;;;;;;;;;;;;;4994101;28;129483;-76
2023/12/03 08:30:07;;;;;;;;;;;;;;;;;;4989645;28;125590;-76
2023/12/03 08:32:33;;;;;;;;;;;;;;;;;;5000624;28;126451;-76
2023/12/03 08:35:00;;;;;;;;;;;;;;;;;;4989453;28;124146;-76
2023/12/03 08:37:26;;;;;;;;;;;;;;;;;;5001591;28;126545;-75
2023/12/03 08:39:53;;;;;;;;;;;;;;;;;;4994915;28;126229;-76
2023/12/03 08:42:19;;;;;;;;;;;;;;;;;;4992547;28;99274;-74
2023/12/03 08:44:46;;;;;;;;;;;;;;;;;;4997714;28;127744;-74
2023/12/03 08:47:15;;;;;;;;;;;;;;;;;;4994417;28;123048;-75
2023/12/03 08:49:41;;;;;;;;;;;;;;;;;;5000228;28;123046;-74
2023/12/03 08:52:08;;;;;;;;;;;;;;;;;;4993350;28;128746;-75
2023/12/03 08:54:35;;;;;;;;;;;;;;;;;;4995690;28;128997;-74
2023/12/03 08:57:02;;;;;;;;;;;;;;;;;;4998537;28;111664;-75
2023/12/03 08:59:29;;;;;;;;;;;;;;;;;;4998593;28;128777;-76
2023/12/03 09:01:55;;;;;;;;;;;;;;;;;;4997822;28;122719;-76
2023/12/03 09:04:21;;;;;;;;;;;;;;;;;;4996762;28;130003;-75
2023/12/03 09:06:48;;;;;;;;;;;;;;;;;;4999323;28;119258;-75
2023/12/03 09:09:14;;;;;;;;;;;;;;;;;;4996428;28;122980;-76
2023/12/03 09:11:40;;;;;;;;;;;;;;;;;;5000246;28;129101;-75
2023/12/03 09:14:07;;;;;;;;;;;;;;;;;;4998031;28;128845;-76
2023/12/03 09:16:33;;;;;;;;;;;;;;;;;;4998898;28;123685;-75
2023/12/03 09:18:59;;;;;;;;;;;;;;;;;;4991162;28;129997;-75
2023/12/03 09:21:26;;;;;;;;;;;;;;;;;;4996015;28;122983;-75
2023/12/03 09:23:54;;;;;;;;;;;;;;;;;;4994807;28;123147;-75
2023/12/03 09:26:20;;;;;;;;;;;;;;;;;;4998942;28;121313;-74
2023/12/03 09:28:46;;;;;;;;;;;;;;;;;;4998734;28;117552;-75
2023/12/03 09:31:13;;;;;;;;;;;;;;;;;;4989256;28;121971;-74
2023/12/03 09:33:39;;;;;;;;;;;;;;;;;;4989609;28;116983;-75
2023/12/03 09:36:06;;;;;;;;;;;;;;;;;;4998755;28;106878;-75
2023/12/03 09:38:32;;;;;;;;;;;;;;;;;;5003725;28;120172;-76
2023/12/03 09:40:58;;;;;;;;;;;;;;;;;;4999819;28;105433;-75
2023/12/03 09:43:25;;;;;;;;;;;;;;;;;;5005496;28;121331;-76
2023/12/03 09:45:51;;;;;;;;;;;;;;;;;;4999621;28;123713;-75
2023/12/03 09:48:18;;;;;;;;;;;;;;;;;;4993300;28;113025;-76
2023/12/03 09:50:45;;;;;;;;;;;;;;;;;;5007828;28;124856;-74
2023/12/03 09:53:11;;;;;;;;;;;;;;;;;;4988336;28;128327;-75
2023/12/03 09:55:38;;;;;;;;;;;;;;;;;;4998231;28;98295;-75
2023/12/03 09:58:04;;;;;;;;;;;;;;;;;;4997575;28;128689;-74
2023/12/03 10:00:31;;;;;;;;;;;;;;;;;;4997277;28;122527;-75
2023/12/03 10:02:57;;;;;;;;;;;;;;;;;;5002451;28;129724;-74
2023/12/03 10:05:24;;;;;;;;;;;;;;;;;;4998642;28;128413;-74
2023/12/03 10:07:50;;;;;;;;;;;;;;;;;;4994319;28;125722;-75
2023/12/03 10:10:17;;;;;;;;;;;;;;;;;;4990507;28;131182;-72
2023/12/03 10:12:43;;;;;;;;;;;;;;;;;;4989278;28;129670;-74
2023/12/03 10:15:09;;;;;;;;;;;;;;;;;;4992455;28;123039;-74
2023/12/03 10:17:37;;;;;;;;;;;;;;;;;;4988903;28;129014;-73
2023/12/03 10:20:04;;;;;;;;;;;;;;;;;;5007089;28;123572;-73
2023/12/03 10:22:31;;;;;;;;;;;;;;;;;;4999644;28;107578;-74
2023/12/03 10:24:58;;;;;;;;;;;;;;;;;;5003134;28;123111;-74
2023/12/03 10:27:24;;;;;;;;;;;;;;;;;;5003153;28;123009;-76
2023/12/03 10:29:50;;;;;;;;;;;;;;;;;;4990960;28;128853;-74
2023/12/03 10:32:18;;;;;;;;;;;;;;;;;;4989714;28;129666;-75
2023/12/03 10:34:44;;;;;;;;;;;;;;;;;;4993387;28;123766;-75
2023/12/03 10:37:11;;;;;;;;;;;;;;;;;;4991723;28;123099;-75
2023/12/03 10:39:37;;;;;;;;;;;;;;;;;;4993787;28;130659;-76
2023/12/03 10:42:03;;;;;;;;;;;;;;;;;;5001284;28;111391;-73
2023/12/03 10:44:30;;;;;;;;;;;;;;;;;;4998785;28;128990;-75
2023/12/03 10:46:56;;;;;;;;;;;;;;;;;;4988683;28;110927;-76
2023/12/03 10:49:23;;;;;;;;;;;;;;;;;;4996153;28;122020;-76
2023/12/03 10:51:49;;;;;;;;;;;;;;;;;;4989070;28;120668;-74
2023/12/03 10:54:16;;;;;;;;;;;;;;;;;;4991916;28;122123;-75
2023/12/03 10:56:43;;;;;;;;;;;;;;;;;;4997578;28;115570;-76
2023/12/03 10:59:09;;;;;;;;;;;;;;;;;;4996064;28;119654;-74
2023/12/03 11:01:36;;;;;;;;;;;;;;;;;;4995290;28;116103;-75
2023/12/03 11:04:03;;;;;;;;;;;;;;;;;;4998291;28;123727;-76
2023/12/03 11:06:32;;;;;;;;;;;;;;;;;;4990456;28;123831;-78
2023/12/03 11:08:59;;;;;;;;;;;;;;;;;;4994614;28;122093;-75
2023/12/03 11:11:25;;;;;;;;;;;;;;;;;;4996569;28;129224;-76
2023/12/03 11:13:52;;;;;;;;;;;;;;;;;;4996795;28;120224;-75
2023/12/03 11:16:18;;;;;;;;;;;;;;;;;;4995335;28;124237;-75
2023/12/03 11:18:44;;;;;;;;;;;;;;;;;;4994252;28;129591;-76
2023/12/03 11:21:11;;;;;;;;;;;;;;;;;;4989622;28;125397;-75
2023/12/03 11:23:37;;;;;;;;;;;;;;;;;;4994177;28;128638;-74
2023/12/03 11:26:05;;;;;;;;;;;;;;;;;;4995826;28;103459;-75
2023/12/03 11:28:32;;;;;;;;;;;;;;;;;;4991082;28;124651;-74
2023/12/03 11:30:58;;;;;;;;;;;;;;;;;;4993444;28;129631;-76
2023/12/03 11:33:26;;;;;;;;;;;;;;;;;;4990648;28;122663;-75
2023/12/03 11:35:53;;;;;;;;;;;;;;;;;;4991108;28;110372;-75
2023/12/03 11:38:19;;;;;;;;;;;;;;;;;;4988409;28;130205;-75
2023/12/03 11:40:45;;;;;;;;;;;;;;;;;;4992397;28;124097;-76
2023/12/03 11:43:12;;;;;;;;;;;;;;;;;;4988647;28;128773;-75
2023/12/03 11:45:38;;;;;;;;;;;;;;;;;;5000497;28;130095;-78
2023/12/03 11:48:05;;;;;;;;;;;;;;;;;;4990858;28;129518;-73
2023/12/03 11:50:32;;;;;;;;;;;;;;;;;;4990459;28;130177;-75
2023/12/03 11:52:58;;;;;;;;;;;;;;;;;;4991204;28;121625;-75
2023/12/03 11:55:24;;;;;;;;;;;;;;;;;;4989458;28;128946;-74
2023/12/03 11:57:51;;;;;;;;;;;;;;;;;;4990601;28;126996;-76
2023/12/03 12:00:17;;;;;;;;;;;;;;;;;;4996360;28;123087;-76
2023/12/03 12:02:44;;;;;;;;;;;;;;;;;;4995548;28;129151;-76
2023/12/03 12:05:10;;;;;;;;;;;;;;;;;;4995878;28;130059;-75
2023/12/03 12:07:37;;;;;;;;;;;;;;;;;;4997047;28;123203;-75
2023/12/03 12:10:03;;;;;;;;;;;;;;;;;;4993152;28;127983;-74
2023/12/03 12:12:30;;;;;;;;;;;;;;;;;;4989561;28;121857;-74
2023/12/03 12:14:56;;;;;;;;;;;;;;;;;;4995259;28;128985;-74
2023/12/03 12:17:22;;;;;;;;;;;;;;;;;;4984989;28;129461;-74
2023/12/03 12:19:49;;;;;;;;;;;;;;;;;;4990956;28;122903;-75
2023/12/03 12:22:15;;;;;;;;;;;;;;;;;;4989102;28;130360;-75
2023/12/03 12:24:42;;;;;;;;;;;;;;;;;;4991843;28;129367;-75
2023/12/03 12:27:08;;;;;;;;;;;;;;;;;;4995173;28;122515;-74
2023/12/03 12:29:35;;;;;;;;;;;;;;;;;;4994079;28;125709;-74
2023/12/03 12:32:01;;;;;;;;;;;;;;;;;;4993712;28;123184;-74
2023/12/03 12:34:29;;;;;;;;;;;;;;;;;;4988226;28;129910;-76
2023/12/03 12:36:55;;;;;;;;;;;;;;;;;;4989671;28;129569;-75
2023/12/03 12:39:22;;;;;;;;;;;;;;;;;;4992690;28;98572;-75
2023/12/03 12:41:48;;;;;;;;;;;;;;;;;;4990860;28;127228;-75
2023/12/03 12:44:14;;;;;;;;;;;;;;;;;;4991257;28;130314;-74
2023/12/03 12:46:41;;;;;;;;;;;;;;;;;;4988804;28;112988;-75
2023/12/03 12:49:07;;;;;;;;;;;;;;;;;;4987590;28;128881;-75
2023/12/03 12:51:33;;;;;;;;;;;;;;;;;;4991968;28;130311;-75
2023/12/03 12:54:00;;;;;;;;;;;;;;;;;;4987487;28;128859;-75
2023/12/03 12:56:27;;;;;;;;;;;;;;;;;;4983555;28;129448;-74
2023/12/03 12:58:53;;;;;;;;;;;;;;;;;;4990202;28;125521;-74
2023/12/03 13:01:20;;;;;;;;;;;;;;;;;;4990666;28;129205;-75
2023/12/03 13:03:46;;;;;;;;;;;;;;;;;;4990283;28;130062;-74
2023/12/03 13:06:13;;;;;;;;;;;;;;;;;;4994097;28;123890;-75
2023/12/03 13:08:39;;;;;;;;;;;;;;;;;;4993806;28;129116;-75
2023/12/03 13:11:06;;;;;;;;;;;;;;;;;;4999195;28;130195;-74
2023/12/03 13:13:32;;;;;;;;;;;;;;;;;;5002304;28;123193;-74
2023/12/03 13:15:58;;;;;;;;;;;;;;;;;;5004896;28;129558;-75
2023/12/03 13:18:25;;;;;;;;;;;;;;;;;;5001254;28;125101;-74
2023/12/03 13:20:52;;;;;;;;;;;;;;;;;;4989964;28;129098;-74
2023/12/03 13:23:19;;;;;;;;;;;;;;;;;;5000276;28;130213;-74
2023/12/03 13:25:45;;;;;;;;;;;;;;;;;;5003880;28;123284;-75
2023/12/03 13:28:11;;;;;;;;;;;;;;;;;;4994030;28;127251;-74
2023/12/03 13:30:38;;;;;;;;;;;;;;;;;;4997202;28;129146;-75
2023/12/03 13:33:04;;;;;;;;;;;;;;;;;;5007631;28;121593;-74
2023/12/03 13:35:31;;;;;;;;;;;;;;;;;;4996113;28;129475;-75
2023/12/03 13:37:57;;;;;;;;;;;;;;;;;;5003149;28;123098;-74
2023/12/03 13:40:24;;;;;;;;;;;;;;;;;;4999525;28;128671;-73
2023/12/03 13:42:51;;;;;;;;;;;;;;;;;;4999751;28;129519;-72
2023/12/03 13:45:20;;;;;;;;;;;;;;;;;;4992215;28;98300;-73
2023/12/03 13:47:51;;;;;;;;;;;;;;;;;;5002072;28;98451;-75
2023/12/03 13:50:17;;;;;;;;;;;;;;;;;;4998989;28;130306;-72
2023/12/03 13:52:47;;;;;;;;;;;;;;;;;;4989684;28;98263;-75
2023/12/03 13:55:14;;;;;;;;;;;;;;;;;;5000229;28;129102;-74
2023/12/03 13:57:42;;;;;;;;;;;;;;;;;;4998328;28;98273;-75
2023/12/03 14:00:10;;;;;;;;;;;;;;;;;;5005360;28;129237;-75
2023/12/03 14:02:37;;;;;;;;;;;;;;;;;;4992604;28;98882;-75
2023/12/03 14:05:08;;;;;;;;;;;;;;;;;;4996702;28;122046;-73
2023/12/03 14:07:45;;;;;;;;;;;;;;;;;;4988133;28;128943;-75
2023/12/03 14:10:11;;;;;;;;;;;;;;;;;;4987431;28;129444;-76
2023/12/03 14:12:38;;;;;;;;;;;;;;;;;;4991941;28;125569;-73
2023/12/03 14:15:05;;;;;;;;;;;;;;;;;;5000058;28;125404;-74
2023/12/03 14:17:31;;;;;;;;;;;;;;;;;;5003149;28;110521;-74
2023/12/03 14:19:57;;;;;;;;;;;;;;;;;;5006261;28;127063;-73
2023/12/03 14:22:24;;;;;;;;;;;;;;;;;;5003323;28;130172;-75
2023/12/03 14:24:52;;;;;;;;;;;;;;;;;;4996331;28;123065;-75
2023/12/03 14:27:18;;;;;;;;;;;;;;;;;;4996176;28;128827;-75
2023/12/03 14:29:45;;;;;;;;;;;;;;;;;;5006428;28;129555;-74
2023/12/03 14:32:13;;;;;;;;;;;;;;;;;;5001809;28;123036;-74
2023/12/03 14:34:40;;;;;;;;;;;;;;;;;;5007548;28;122405;-74
2023/12/03 14:37:06;;;;;;;;;;;;;;;;;;5004850;28;117470;-74
2023/12/03 14:39:33;;;;;;;;;;;;;;;;;;4999144;28;123010;-75
2023/12/03 14:41:59;;;;;;;;;;;;;;;;;;4995933;28;128198;-75
2023/12/03 14:44:25;;;;;;;;;;;;;;;;;;4993873;28;123783;-75
2023/12/03 14:46:52;;;;;;;;;;;;;;;;;;4996207;28;129189;-75
2023/12/03 14:49:19;;;;;;;;;;;;;;;;;;5003543;28;128210;-75
2023/12/03 14:51:45;;;;;;;;;;;;;;;;;;4996253;28;123200;-74
2023/12/03 14:54:12;;;;;;;;;;;;;;;;;;4995733;28;129607;-74
2023/12/03 14:56:39;;;;;;;;;;;;;;;;;;4996135;28;130276;-74
2023/12/03 14:59:06;;;;;;;;;;;;;;;;;;4990799;28;123076;-74
2023/12/03 15:01:32;;;;;;;;;;;;;;;;;;5003438;28;128961;-73
2023/12/03 15:03:59;;;;;;;;;;;;;;;;;;4997781;28;123682;-73
2023/12/03 15:06:25;;;;;;;;;;;;;;;;;;4985523;28;128931;-73
2023/12/03 15:08:51;;;;;;;;;;;;;;;;;;4994093;28;129880;-75
2023/12/03 15:11:18;;;;;;;;;;;;;;;;;;4991041;28;122132;-75
2023/12/03 15:13:47;;;;;;;;;;;;;;;;;;4999196;28;129674;-72
2023/12/03 15:16:19;;;;;;;;;;;;;;;;;;5000063;28;99921;-73
2023/12/03 15:18:45;;;;;;;;;;;;;;;;;;5002397;28;122358;-73
2023/12/03 15:21:11;;;;;;;;;;;;;;;;;;4991210;28;127659;-74
2023/12/03 15:23:38;;;;;;;;;;;;;;;;;;5000410;28;130368;-75
2023/12/03 15:26:04;;;;;;;;;;;;;;;;;;5000081;28;128756;-75
2023/12/03 15:28:30;;;;;;;;;;;;;;;;;;4993804;28;129433;-74
2023/12/03 15:30:57;;;;;;;;;;;;;;;;;;5006735;28;123247;-73
2023/12/03 15:33:23;;;;;;;;;;;;;;;;;;4996263;28;129744;-75
2023/12/03 15:35:50;;;;;;;;;;;;;;;;;;4991437;28;129429;-75
2023/12/03 15:38:16;;;;;;;;;;;;;;;;;;4994080;28;123201;-75
2023/12/03 15:40:42;;;;;;;;;;;;;;;;;;4989510;28;128785;-75
2023/12/03 15:43:08;;;;;;;;;;;;;;;;;;5002062;28;129887;-75
2023/12/03 15:45:36;;;;;;;;;;;;;;;;;;4996883;28;129183;-74
2023/12/03 15:48:03;;;;;;;;;;;;;;;;;;4999566;28;129511;-74
2023/12/03 15:50:29;;;;;;;;;;;;;;;;;;5000042;28;106902;-73
2023/12/03 15:52:56;;;;;;;;;;;;;;;;;;4998732;28;129755;-76
2023/12/03 15:55:24;;;;;;;;;;;;;;;;;;4986052;28;129243;-75
2023/12/03 15:57:51;;;;;;;;;;;;;;;;;;5005464;28;123437;-75
2023/12/03 16:00:17;;;;;;;;;;;;;;;;;;4999205;28;129029;-73
2023/12/03 16:02:44;;;;;;;;;;;;;;;;;;4994709;28;129543;-75
2023/12/03 16:05:10;;;;;;;;;;;;;;;;;;5004137;28;123054;-74
2023/12/03 16:07:37;;;;;;;;;;;;;;;;;;5002227;28;129504;-74
2023/12/03 16:10:04;;;;;;;;;;;;;;;;;;4986583;28;123012;-75
2023/12/03 16:12:32;;;;;;;;;;;;;;;;;;4994318;28;127592;-74
2023/12/03 16:14:59;;;;;;;;;;;;;;;;;;4994471;28;131346;-74
2023/12/03 16:17:25;;;;;;;;;;;;;;;;;;4988519;28;123156;-74
2023/12/03 16:19:59;;;;;;;;;;;;;;;;;;4990378;28;129740;-74
2023/12/03 16:22:27;;;;;;;;;;;;;;;;;;4993342;28;129865;-75
2023/12/03 16:24:53;;;;;;;;;;;;;;;;;;4993556;28;124025;-75